createdAt,value
2022-08-11T00:01:29.034Z,10.55
2022-08-11T00:03:58.367Z,12.40
2022-08-11T00:06:35.337Z,8.10
2022-08-11T00:09:05.053Z,7.55
2022-08-11T00:11:38.042Z,7.13
2022-08-11T00:14:13.686Z,7.97
2022-08-11T00:16:42.066Z,12.18
2022-08-11T00:19:10.000Z,12.07
2022-08-11T00:22:04.958Z,18.58
2022-08-11T00:24:52.032Z,11.85
2022-08-11T00:27:31.934Z,14.15
2022-08-11T00:29:58.968Z,9.45
2022-08-11T00:32:27.779Z,12.65
2022-08-11T00:35:56.295Z,13.35
2022-08-11T00:37:50.669Z,12.52
2022-08-11T00:40:44.331Z,6.55
2022-08-11T00:43:48.569Z,7.30
2022-08-11T00:46:35.401Z,12.95
2022-08-11T00:49:39.586Z,11.52
2022-08-11T00:52:36.724Z,9.98
2022-08-11T00:55:12.611Z,7.68
2022-08-11T00:57:45.541Z,8.85
2022-08-11T01:00:19.024Z,6.07
2022-08-11T01:03:18.032Z,12.02
2022-08-11T01:06:22.878Z,5.43
2022-08-11T01:09:22.750Z,5.47
2022-08-11T01:12:11.341Z,8.73
2022-08-11T01:15:02.334Z,8.60
2022-08-11T01:18:06.813Z,5.72
2022-08-11T01:21:10.864Z,4.50
2022-08-11T01:23:49.427Z,7.88
2022-08-11T01:26:44.175Z,5.70
2022-08-11T01:29:36.103Z,6.47
2022-08-11T01:32:44.636Z,5.13
2022-08-11T01:35:56.586Z,6.50
2022-08-11T01:39:00.405Z,5.53
2022-08-11T01:41:47.222Z,6.50
2022-08-11T01:44:39.698Z,6.63
2022-08-11T01:47:37.855Z,7.28
2022-08-11T01:50:51.606Z,7.97
2022-08-11T01:53:24.650Z,8.07
2022-08-11T01:56:22.326Z,10.50
2022-08-11T01:59:05.561Z,7.53
2022-08-11T02:01:53.689Z,8.07
2022-08-11T02:04:51.840Z,8.90
2022-08-11T02:07:36.276Z,8.40
2022-08-11T02:10:50.686Z,7.47
2022-08-11T02:13:36.654Z,9.75
2022-08-11T02:16:31.842Z,5.90
2022-08-11T02:19:27.921Z,8.10
2022-08-11T02:22:19.505Z,11.20
2022-08-11T02:24:54.287Z,7.43
2022-08-11T02:27:24.212Z,7.85
2022-08-11T02:32:49.214Z,8.75
2022-08-11T02:35:29.530Z,6.35
2022-08-11T02:38:45.450Z,4.50
2022-08-11T02:42:07.898Z,9.98
2022-08-11T02:45:18.105Z,8.68
2022-08-11T02:48:12.232Z,6.10
2022-08-11T02:51:04.789Z,7.60
2022-08-11T02:54:01.857Z,6.05
2022-08-11T02:56:37.495Z,5.03
2022-08-11T02:59:34.947Z,3.97
2022-08-11T03:02:31.545Z,6.88
2022-08-11T03:05:21.038Z,7.20
2022-08-11T03:07:54.192Z,5.63
2022-08-11T03:10:32.889Z,4.10
2022-08-11T03:13:47.411Z,3.63
2022-08-11T03:16:42.668Z,10.02
2022-08-11T03:19:18.338Z,4.15
2022-08-11T03:22:03.699Z,5.88
2022-08-11T03:24:54.242Z,4.75
2022-08-11T03:27:46.418Z,4.97
2022-08-11T03:30:18.872Z,8.38
2022-08-11T03:33:18.002Z,12.63
2022-08-11T03:36:08.343Z,10.93
2022-08-11T03:38:55.948Z,8.35
2022-08-11T03:42:03.115Z,12.07
2022-08-11T03:44:40.636Z,10.82
2022-08-11T03:47:10.705Z,17.02
2022-08-11T03:49:39.380Z,19.92
2022-08-11T03:52:17.899Z,11.35
2022-08-11T03:54:58.721Z,7.18
2022-08-11T03:57:44.840Z,13.65
2022-08-11T04:00:24.111Z,14.68
2022-08-11T04:03:03.585Z,7.80
2022-08-11T04:05:54.196Z,15.35
2022-08-11T04:08:33.900Z,16.98
2022-08-11T04:11:20.495Z,12.75
2022-08-11T04:14:25.091Z,15.75
2022-08-11T04:16:58.895Z,16.38
2022-08-11T04:19:28.934Z,25.33
2022-08-11T04:22:15.349Z,25.00
2022-08-11T04:24:59.198Z,16.70
2022-08-11T04:28:28.539Z,15.18
2022-08-11T04:31:14.543Z,10.82
2022-08-11T04:34:24.577Z,14.50
2022-08-11T04:37:28.711Z,13.02
2022-08-11T04:40:03.500Z,12.30
2022-08-11T04:43:04.630Z,8.60
2022-08-11T04:45:46.405Z,9.13
2022-08-11T04:48:46.532Z,8.13
2022-08-11T04:52:02.657Z,10.18
2022-08-11T04:55:20.709Z,6.13
2022-08-11T04:58:21.653Z,6.90
2022-08-11T05:01:37.373Z,9.48
2022-08-11T05:04:42.967Z,10.35
2022-08-11T05:07:28.334Z,12.10
2022-08-11T05:10:00.811Z,15.38
2022-08-11T05:12:36.022Z,10.70
2022-08-11T05:15:22.790Z,7.90
2022-08-11T05:18:21.537Z,11.85
2022-08-11T05:21:12.484Z,17.25
2022-08-11T05:24:07.484Z,8.82
2022-08-11T05:27:13.320Z,15.77
2022-08-11T05:30:03.450Z,10.45
2022-08-11T05:33:01.728Z,12.23
2022-08-11T05:36:01.949Z,10.85
2022-08-11T05:38:53.002Z,13.88
2022-08-11T05:41:44.319Z,12.05
2022-08-11T05:44:39.360Z,9.95
2022-08-11T05:47:25.922Z,21.27
2022-08-11T05:50:13.528Z,19.00
2022-08-11T05:53:08.935Z,15.68
2022-08-11T05:56:03.253Z,15.25
2022-08-11T05:58:42.672Z,8.40
2022-08-11T06:01:12.404Z,16.52
2022-08-11T06:04:01.954Z,11.52
2022-08-11T06:06:30.356Z,11.20
2022-08-11T06:08:59.342Z,8.48
2022-08-11T06:11:43.553Z,11.18
2022-08-11T06:14:12.940Z,10.75
2022-08-11T06:16:42.556Z,11.10
2022-08-11T06:21:38.543Z,17.00
2022-08-11T06:24:12.450Z,9.27
2022-08-11T06:27:08.640Z,7.28
2022-08-11T06:29:37.774Z,13.45
2022-08-11T06:32:16.004Z,7.93
2022-08-11T06:34:49.548Z,7.30
2022-08-11T06:37:38.080Z,10.35
2022-08-11T06:40:19.023Z,8.90
2022-08-11T06:42:56.711Z,17.38
2022-08-11T06:45:23.632Z,6.97
2022-08-11T06:47:51.148Z,4.70
2022-08-11T06:50:39.303Z,8.00
2022-08-11T06:53:12.355Z,11.30
2022-08-11T06:56:02.793Z,32.25
2022-08-11T06:58:56.036Z,7.47
2022-08-11T07:01:46.739Z,1.95
2022-08-11T07:04:31.824Z,8.27
2022-08-11T07:07:54.771Z,8.38
2022-08-11T07:10:58.323Z,3.95
2022-08-11T07:13:46.017Z,6.97
2022-08-11T07:16:18.681Z,7.28
2022-08-11T07:19:16.554Z,3.28
2022-08-11T07:22:04.926Z,1.95
2022-08-11T07:25:05.595Z,1.50
2022-08-11T07:28:05.344Z,14.27
2022-08-11T07:30:33.795Z,3.80
2022-08-11T07:33:02.301Z,8.98
2022-08-11T07:35:34.830Z,7.18
2022-08-11T07:38:08.024Z,5.10
2022-08-11T07:40:36.555Z,5.53
2022-08-11T07:43:04.240Z,4.50
2022-08-11T07:45:51.166Z,15.68
2022-08-11T07:48:38.171Z,2.90
2022-08-11T07:51:24.434Z,5.00
2022-08-11T07:53:58.418Z,3.72
2022-08-11T07:57:07.244Z,5.90
2022-08-11T08:00:03.750Z,3.42
2022-08-11T08:02:52.004Z,3.47
2022-08-11T08:05:38.779Z,3.28
2022-08-11T08:08:27.341Z,2.75
2022-08-11T08:11:15.361Z,0.70
2022-08-11T08:14:01.992Z,4.18
2022-08-11T08:16:49.272Z,4.45
2022-08-11T08:19:19.480Z,3.28
2022-08-11T08:21:48.458Z,2.25
2022-08-11T08:24:15.878Z,4.07
2022-08-11T08:26:59.367Z,7.55
2022-08-11T08:29:47.919Z,4.18
2022-08-11T08:32:17.878Z,5.85
2022-08-11T08:34:46.259Z,2.97
2022-08-11T08:37:45.094Z,2.85
2022-08-11T08:40:02.232Z,1.00
2022-08-11T08:42:35.449Z,2.60
2022-08-11T08:45:10.681Z,2.85
2022-08-11T08:47:43.493Z,2.30
2022-08-11T08:50:19.678Z,1.77
2022-08-11T08:53:00.903Z,4.30
2022-08-11T08:55:30.166Z,2.72
2022-08-11T08:58:00.800Z,4.25
2022-08-11T09:00:42.843Z,2.85
2022-08-11T09:03:39.059Z,2.17
2022-08-11T09:05:58.621Z,2.45
2022-08-11T09:08:26.292Z,3.13
2022-08-11T09:11:14.502Z,4.40
2022-08-11T09:13:45.199Z,1.52
2022-08-11T09:16:13.025Z,3.50
2022-08-11T09:18:44.758Z,12.63
2022-08-11T09:21:46.462Z,4.90
2022-08-11T09:24:26.429Z,1.40
2022-08-11T09:26:59.762Z,3.47
2022-08-11T09:29:31.909Z,0.90
2022-08-11T09:31:59.942Z,10.20
2022-08-11T09:34:27.887Z,4.05
2022-08-11T09:37:13.981Z,3.00
2022-08-11T09:40:20.141Z,1.60
2022-08-11T09:43:06.431Z,2.50
2022-08-11T09:45:40.475Z,4.43
2022-08-11T09:48:08.225Z,3.13
2022-08-11T09:50:38.327Z,1.83
2022-08-11T09:53:36.020Z,1.45
2022-08-11T09:55:54.458Z,2.45
2022-08-11T09:58:42.941Z,2.28
2022-08-11T10:01:27.559Z,5.70
2022-08-11T10:04:20.567Z,2.75
2022-08-11T10:07:06.979Z,2.92
2022-08-11T10:09:59.099Z,0.98
2022-08-11T10:12:28.056Z,1.65
2022-08-11T10:15:17.063Z,2.83
2022-08-11T10:18:07.057Z,4.88
2022-08-11T10:20:37.054Z,3.60
2022-08-11T10:23:23.937Z,3.78
2022-08-11T10:26:12.971Z,5.65
2022-08-11T10:29:02.412Z,0.82
2022-08-11T10:31:56.772Z,5.88
2022-08-11T10:34:28.345Z,1.77
2022-08-11T10:36:58.546Z,3.58
2022-08-11T10:42:25.791Z,1.80
2022-08-11T10:45:05.037Z,2.17
2022-08-11T10:47:34.987Z,4.68
2022-08-11T10:50:38.249Z,2.88
2022-08-11T10:53:25.800Z,1.77
2022-08-11T10:56:12.044Z,0.88
2022-08-11T10:58:52.213Z,1.10
2022-08-11T11:01:23.450Z,2.05
2022-08-11T11:03:55.314Z,2.50
2022-08-11T11:06:29.884Z,1.10
2022-08-11T11:09:08.855Z,2.03
2022-08-11T11:11:57.995Z,0.75
2022-08-11T11:14:50.732Z,1.52
2022-08-11T11:17:50.493Z,1.63
2022-08-11T11:20:36.938Z,5.68
2022-08-11T11:23:25.460Z,8.25
2022-08-11T11:26:14.610Z,2.65
2022-08-11T11:28:47.772Z,1.42
2022-08-11T11:31:34.268Z,1.80
2022-08-11T11:34:15.109Z,5.13
2022-08-11T11:36:50.059Z,1.10
2022-08-11T11:39:20.648Z,0.65
2022-08-11T11:41:49.756Z,1.17
2022-08-11T11:44:17.758Z,2.45
2022-08-11T11:46:45.580Z,2.15
2022-08-11T11:49:17.170Z,1.40
2022-08-11T11:51:50.070Z,1.23
2022-08-11T11:54:21.165Z,4.40
2022-08-11T11:56:48.970Z,2.00
2022-08-11T11:59:35.941Z,0.70
2022-08-11T12:02:11.630Z,3.13
2022-08-11T12:04:43.136Z,3.60
2022-08-11T12:07:29.764Z,2.65
2022-08-11T12:09:58.668Z,2.75
2022-08-11T12:12:45.412Z,1.23
2022-08-11T12:15:13.303Z,4.15
2022-08-11T12:17:40.754Z,2.20
2022-08-11T12:20:31.774Z,3.90
2022-08-11T12:23:15.421Z,1.25
2022-08-11T12:26:26.369Z,1.25
2022-08-11T12:28:50.644Z,3.67
2022-08-11T12:31:22.180Z,1.08
2022-08-11T12:33:50.463Z,4.78
2022-08-11T12:36:19.531Z,1.23
2022-08-11T12:38:51.483Z,8.90
2022-08-11T12:41:39.946Z,2.65
2022-08-11T12:44:29.465Z,1.65
2022-08-11T12:47:00.037Z,3.17
2022-08-11T12:49:49.471Z,3.03
2022-08-11T12:52:24.066Z,1.05
2022-08-11T12:55:02.569Z,6.75
2022-08-11T12:57:59.058Z,6.07
2022-08-11T13:00:46.828Z,2.03
2022-08-11T13:03:33.167Z,2.08
2022-08-11T13:06:05.111Z,1.00
2022-08-11T13:08:37.995Z,1.10
2022-08-11T13:11:24.264Z,2.20
2022-08-11T13:13:57.531Z,1.38
2022-08-11T13:16:55.941Z,1.23
2022-08-11T13:19:24.244Z,1.98
2022-08-11T13:21:53.684Z,4.63
2022-08-11T13:24:22.645Z,2.90
2022-08-11T13:26:51.115Z,3.90
2022-08-11T13:29:23.488Z,2.70
2022-08-11T13:31:52.354Z,3.65
2022-08-11T13:34:21.387Z,2.55
2022-08-11T13:36:54.510Z,1.75
2022-08-11T13:39:29.550Z,4.65
2022-08-11T13:41:59.612Z,2.22
2022-08-11T13:44:29.994Z,4.50
2022-08-11T13:47:01.550Z,1.10
2022-08-11T13:49:30.655Z,1.48
2022-08-11T13:51:58.646Z,0.85
2022-08-11T13:54:32.094Z,2.92
2022-08-11T13:57:08.110Z,3.05
2022-08-11T13:59:51.877Z,4.60
2022-08-11T14:02:29.436Z,8.23
2022-08-11T14:05:08.001Z,5.10
2022-08-11T14:07:42.254Z,4.57
2022-08-11T14:10:12.518Z,2.63
2022-08-11T14:13:01.505Z,1.75
2022-08-11T14:15:33.163Z,3.63
2022-08-11T14:18:09.430Z,1.95
2022-08-11T14:21:00.522Z,7.25
2022-08-11T14:23:32.945Z,2.95
2022-08-11T14:26:19.630Z,11.13
2022-08-11T14:28:47.757Z,3.10
2022-08-11T14:31:16.192Z,2.15
2022-08-11T14:34:00.140Z,17.52
2022-08-11T14:36:40.712Z,3.92
2022-08-11T14:39:12.895Z,2.15
2022-08-11T14:42:11.801Z,4.70
2022-08-11T14:45:06.696Z,4.03
2022-08-11T14:47:37.176Z,2.90
2022-08-11T14:50:11.522Z,1.80
2022-08-11T14:52:50.226Z,2.13
2022-08-11T14:55:39.428Z,2.80
2022-08-11T14:58:11.349Z,1.13
2022-08-11T15:00:41.466Z,4.50
2022-08-11T15:03:11.151Z,1.08
2022-08-11T15:05:55.747Z,4.60
2022-08-11T15:08:52.685Z,5.25
2022-08-11T15:11:42.899Z,2.97
2022-08-11T15:14:12.890Z,5.72
2022-08-11T15:17:03.266Z,3.63
2022-08-11T15:19:40.632Z,3.30
2022-08-11T15:22:28.622Z,2.53
2022-08-11T15:24:57.922Z,3.33
2022-08-11T15:27:48.545Z,5.47
2022-08-11T15:30:35.237Z,1.30
2022-08-11T15:33:26.065Z,3.25
2022-08-11T15:36:16.064Z,3.00
2022-08-11T15:38:49.298Z,2.13
2022-08-11T15:41:58.314Z,2.88
2022-08-11T15:45:05.107Z,3.33
2022-08-11T15:47:46.275Z,2.00
2022-08-11T15:50:21.116Z,3.53
2022-08-11T15:52:56.445Z,1.70
2022-08-11T15:55:24.644Z,2.58
2022-08-11T15:58:15.106Z,4.20
2022-08-11T16:01:08.962Z,2.83
2022-08-11T16:04:06.694Z,2.83
2022-08-11T16:07:05.313Z,2.92
2022-08-11T16:09:51.629Z,4.53
2022-08-11T16:12:25.224Z,2.50
2022-08-11T16:15:19.965Z,1.67
2022-08-11T16:17:52.157Z,3.30
2022-08-11T16:20:27.678Z,2.50
2022-08-11T16:23:01.839Z,3.28
2022-08-11T16:27:02.913Z,3.08
2022-08-11T16:28:20.920Z,2.22
2022-08-11T16:30:49.354Z,8.35
2022-08-11T16:33:50.707Z,6.53
2022-08-11T16:36:24.173Z,4.88
2022-08-11T16:38:52.400Z,8.50
2022-08-11T16:41:41.608Z,2.58
2022-08-11T16:44:37.219Z,1.98
2022-08-11T16:47:12.606Z,3.03
2022-08-11T16:49:52.331Z,2.63
2022-08-11T16:52:21.100Z,3.28
2022-08-11T16:54:48.470Z,2.17
2022-08-11T16:57:43.234Z,2.90
2022-08-11T17:00:13.246Z,4.70
2022-08-11T17:03:10.510Z,4.70
2022-08-11T17:06:03.534Z,1.73
2022-08-11T17:08:57.960Z,3.58
2022-08-11T17:11:51.352Z,1.67
2022-08-11T17:14:35.189Z,1.00
2022-08-11T17:17:32.058Z,2.45
2022-08-11T17:20:40.091Z,6.57
2022-08-11T17:23:13.389Z,6.43
2022-08-11T17:26:03.525Z,7.43
2022-08-11T17:28:35.029Z,5.22
2022-08-11T17:31:23.958Z,4.20
2022-08-11T17:34:13.811Z,6.35
2022-08-11T17:36:46.140Z,2.28
2022-08-11T17:39:15.344Z,5.90
2022-08-11T17:42:03.480Z,7.00
2022-08-11T17:44:50.204Z,8.23
2022-08-11T17:47:39.316Z,8.05
2022-08-11T17:50:16.299Z,17.23
2022-08-11T17:53:06.123Z,13.27
2022-08-11T17:55:54.509Z,10.30
2022-08-11T17:58:44.219Z,7.65
2022-08-11T18:01:14.264Z,7.45
2022-08-11T18:03:56.255Z,7.80
2022-08-11T18:06:32.565Z,8.38
2022-08-11T18:09:22.746Z,13.35
2022-08-11T18:12:12.737Z,7.28
2022-08-11T18:15:06.087Z,4.07
2022-08-11T18:20:37.866Z,7.57
2022-08-11T18:23:46.342Z,8.13
2022-08-11T18:26:35.736Z,14.15
2022-08-11T18:29:23.193Z,7.80
2022-08-11T18:32:11.625Z,4.97
2022-08-11T18:35:09.088Z,17.13
2022-08-11T18:37:57.858Z,9.43
2022-08-11T18:40:47.098Z,10.53
2022-08-11T18:43:34.730Z,9.95
2022-08-11T18:46:24.487Z,9.77
2022-08-11T18:49:17.203Z,16.10
2022-08-11T18:52:13.086Z,14.55
2022-08-11T18:55:03.382Z,13.15
2022-08-11T18:57:54.124Z,12.60
2022-08-11T19:00:41.659Z,13.25
2022-08-11T19:03:31.108Z,10.10
2022-08-11T19:06:39.463Z,11.60
2022-08-11T19:09:30.712Z,8.48
2022-08-11T19:12:17.842Z,10.65
2022-08-11T19:15:04.969Z,13.25
2022-08-11T19:17:52.648Z,14.23
2022-08-11T19:20:42.103Z,12.73
2022-08-11T19:23:30.591Z,15.90
2022-08-11T19:26:17.624Z,14.23
2022-08-11T19:29:04.788Z,16.88
2022-08-11T19:31:52.160Z,21.00
2022-08-11T19:34:44.042Z,14.45
2022-08-11T19:37:31.316Z,15.75
2022-08-11T19:40:22.299Z,10.65
2022-08-11T19:43:18.646Z,15.38
2022-08-11T19:46:13.672Z,13.32
2022-08-11T19:49:00.780Z,9.82
2022-08-11T19:51:47.928Z,15.88
2022-08-11T19:54:44.403Z,15.65
2022-08-11T19:57:37.324Z,20.23
2022-08-11T20:00:30.260Z,27.88
2022-08-11T20:03:16.519Z,14.90
2022-08-11T20:06:02.604Z,17.83
2022-08-11T20:08:49.658Z,17.80
2022-08-11T20:11:37.419Z,17.00
2022-08-11T20:14:24.770Z,15.85
2022-08-11T20:17:12.291Z,16.13
2022-08-11T20:22:50.490Z,15.88
2022-08-11T20:25:37.415Z,15.75
2022-08-11T20:28:24.902Z,8.57
2022-08-11T20:31:11.968Z,12.90
2022-08-11T20:33:59.602Z,9.05
2022-08-11T20:36:52.496Z,10.80
2022-08-11T20:39:41.945Z,21.00
2022-08-11T20:42:30.761Z,12.27
2022-08-11T20:45:23.274Z,10.68
2022-08-11T20:48:14.721Z,10.70
2022-08-11T20:51:05.946Z,11.18
2022-08-11T20:54:05.718Z,9.98
2022-08-11T20:56:54.090Z,13.02
2022-08-11T20:59:50.696Z,12.45
2022-08-11T21:02:44.774Z,15.00
2022-08-11T21:06:08.522Z,12.90
2022-08-11T21:08:39.276Z,9.02
2022-08-11T21:11:28.417Z,12.70
2022-08-11T21:14:14.811Z,7.65
2022-08-11T21:17:04.497Z,11.73
2022-08-11T21:20:10.870Z,12.02
2022-08-11T21:23:05.328Z,13.40
2022-08-11T21:26:01.567Z,11.13
2022-08-11T21:28:48.672Z,9.27
2022-08-11T21:31:35.483Z,10.48
2022-08-11T21:34:21.910Z,10.52
2022-08-11T21:37:09.146Z,11.93
2022-08-11T21:39:56.423Z,12.18
2022-08-11T21:42:43.901Z,11.27
2022-08-11T21:45:31.497Z,14.20
2022-08-11T21:48:19.264Z,13.93
2022-08-11T21:51:04.881Z,15.40
2022-08-11T21:53:51.138Z,11.15
2022-08-11T21:56:37.822Z,14.02
2022-08-11T21:59:24.566Z,9.32
2022-08-11T22:02:12.888Z,12.40
2022-08-11T22:05:00.405Z,14.10
2022-08-11T22:07:47.804Z,9.75
2022-08-11T22:10:41.055Z,8.73
2022-08-11T22:13:31.097Z,9.23
2022-08-11T22:16:18.722Z,13.63
2022-08-11T22:19:06.211Z,14.98
2022-08-11T22:22:02.343Z,10.52
2022-08-11T22:24:51.573Z,11.15
2022-08-11T22:27:38.221Z,5.43
2022-08-11T22:30:28.370Z,5.40
2022-08-11T22:33:16.345Z,9.55
2022-08-11T22:36:04.372Z,6.10
2022-08-11T22:38:52.998Z,6.20
2022-08-11T22:41:40.785Z,7.43
2022-08-11T22:44:27.745Z,6.88
2022-08-11T22:47:18.459Z,8.45
2022-08-11T22:50:07.506Z,10.02
2022-08-11T22:52:53.668Z,12.30
2022-08-11T22:55:40.308Z,9.50
2022-08-11T22:58:26.399Z,9.50
2022-08-11T23:01:13.264Z,8.40
2022-08-11T23:03:59.791Z,6.93
2022-08-11T23:06:46.267Z,12.48
2022-08-11T23:09:32.570Z,11.00
2022-08-11T23:12:19.112Z,6.90
2022-08-11T23:15:05.017Z,6.97
2022-08-11T23:17:51.628Z,8.73
2022-08-11T23:20:44.515Z,10.55
2022-08-11T23:23:32.595Z,6.18
2022-08-11T23:26:19.237Z,5.47
2022-08-11T23:29:05.999Z,11.13
2022-08-11T23:31:54.724Z,8.32
2022-08-11T23:35:03.568Z,5.60
2022-08-11T23:37:49.130Z,4.32
2022-08-11T23:40:34.708Z,9.32
2022-08-11T23:43:20.896Z,7.07
2022-08-11T23:46:06.428Z,6.75
2022-08-11T23:48:52.960Z,7.10
2022-08-11T23:51:40.759Z,3.45
2022-08-11T23:54:29.018Z,5.90
2022-08-11T23:57:16.878Z,4.97
